sensor_id;sensor_type;location;lat;lon;timestamp;P1;durP1;ratioP1;P2;durP2;ratioP2
69970;SDS011;57301;50.328;8.542;2024-01-06T00:02:02;7.13;;;3.72;;
69970;SDS011;57301;50.328;8.542;2024-01-06T00:04:29;8.40;;;3.30;;
69970;SDS011;57301;50.328;8.542;2024-01-06T00:06:55;6.10;;;3.23;;
69970;SDS011;57301;50.328;8.542;2024-01-06T00:09:22;9.07;;;3.33;;
69970;SDS011;57301;50.328;8.542;2024-01-06T00:11:48;8.02;;;2.75;;
69970;SDS011;57301;50.328;8.542;2024-01-06T00:14:15;7.30;;;3.20;;
69970;SDS011;57301;50.328;8.542;2024-01-06T00:16:42;7.60;;;3.22;;
69970;SDS011;57301;50.328;8.542;2024-01-06T00:19:09;5.57;;;2.70;;
69970;SDS011;57301;50.328;8.542;2024-01-06T00:21:35;7.57;;;3.10;;
69970;SDS011;57301;50.328;8.542;2024-01-06T00:24:02;7.88;;;3.33;;
69970;SDS011;57301;50.328;8.542;2024-01-06T00:26:29;9.30;;;4.45;;
69970;SDS011;57301;50.328;8.542;2024-01-06T00:28:55;8.18;;;4.80;;
69970;SDS011;57301;50.328;8.542;2024-01-06T00:31:22;13.53;;;5.57;;
69970;SDS011;57301;50.328;8.542;2024-01-06T00:33:48;15.45;;;5.25;;
69970;SDS011;57301;50.328;8.542;2024-01-06T00:36:15;11.05;;;4.55;;
69970;SDS011;57301;50.328;8.542;2024-01-06T00:38:41;8.52;;;3.90;;
69970;SDS011;57301;50.328;8.542;2024-01-06T00:41:08;9.95;;;4.18;;
69970;SDS011;57301;50.328;8.542;2024-01-06T00:43:34;7.57;;;3.90;;
69970;SDS011;57301;50.328;8.542;2024-01-06T00:46:01;13.10;;;5.82;;
69970;SDS011;57301;50.328;8.542;2024-01-06T00:48:28;19.35;;;6.80;;
69970;SDS011;57301;50.328;8.542;2024-01-06T00:50:54;13.32;;;5.75;;
69970;SDS011;57301;50.328;8.542;2024-01-06T00:53:21;10.30;;;4.30;;
69970;SDS011;57301;50.328;8.542;2024-01-06T00:55:48;13.23;;;5.93;;
69970;SDS011;57301;50.328;8.542;2024-01-06T00:58:14;11.82;;;5.45;;
69970;SDS011;57301;50.328;8.542;2024-01-06T01:00:41;11.25;;;3.60;;
69970;SDS011;57301;50.328;8.542;2024-01-06T01:03:07;7.43;;;3.40;;
69970;SDS011;57301;50.328;8.542;2024-01-06T01:05:34;10.48;;;4.47;;
69970;SDS011;57301;50.328;8.542;2024-01-06T01:08:01;11.70;;;6.17;;
69970;SDS011;57301;50.328;8.542;2024-01-06T01:10:27;9.80;;;3.70;;
69970;SDS011;57301;50.328;8.542;2024-01-06T01:12:53;5.78;;;2.55;;
69970;SDS011;57301;50.328;8.542;2024-01-06T01:15:21;4.68;;;2.83;;
69970;SDS011;57301;50.328;8.542;2024-01-06T01:17:47;8.90;;;3.40;;
69970;SDS011;57301;50.328;8.542;2024-01-06T01:20:14;6.30;;;2.60;;
69970;SDS011;57301;50.328;8.542;2024-01-06T01:22:41;5.35;;;2.83;;
69970;SDS011;57301;50.328;8.542;2024-01-06T01:25:07;5.18;;;2.70;;
69970;SDS011;57301;50.328;8.542;2024-01-06T01:27:34;6.97;;;3.10;;
69970;SDS011;57301;50.328;8.542;2024-01-06T01:30:01;6.07;;;2.75;;
69970;SDS011;57301;50.328;8.542;2024-01-06T01:32:27;6.80;;;3.50;;
69970;SDS011;57301;50.328;8.542;2024-01-06T01:34:54;7.00;;;3.47;;
69970;SDS011;57301;50.328;8.542;2024-01-06T01:37:21;7.85;;;3.40;;
69970;SDS011;57301;50.328;8.542;2024-01-06T01:39:47;7.80;;;3.05;;
69970;SDS011;57301;50.328;8.542;2024-01-06T01:42:14;8.30;;;3.30;;
69970;SDS011;57301;50.328;8.542;2024-01-06T01:44:41;6.40;;;2.93;;
69970;SDS011;57301;50.328;8.542;2024-01-06T01:47:07;7.00;;;2.78;;
69970;SDS011;57301;50.328;8.542;2024-01-06T01:49:34;8.25;;;2.95;;
69970;SDS011;57301;50.328;8.542;2024-01-06T01:52:02;11.63;;;3.20;;
69970;SDS011;57301;50.328;8.542;2024-01-06T01:54:29;6.43;;;2.90;;
69970;SDS011;57301;50.328;8.542;2024-01-06T01:56:56;5.53;;;3.07;;
69970;SDS011;57301;50.328;8.542;2024-01-06T01:59:22;7.07;;;2.80;;
69970;SDS011;57301;50.328;8.542;2024-01-06T02:01:49;6.22;;;2.97;;
69970;SDS011;57301;50.328;8.542;2024-01-06T02:04:16;4.70;;;2.80;;
69970;SDS011;57301;50.328;8.542;2024-01-06T02:06:42;4.60;;;2.90;;
69970;SDS011;57301;50.328;8.542;2024-01-06T02:09:09;8.73;;;3.10;;
69970;SDS011;57301;50.328;8.542;2024-01-06T02:11:35;5.55;;;2.90;;
69970;SDS011;57301;50.328;8.542;2024-01-06T02:14:02;4.47;;;2.85;;
69970;SDS011;57301;50.328;8.542;2024-01-06T02:16:28;7.78;;;3.17;;
69970;SDS011;57301;50.328;8.542;2024-01-06T02:18:55;7.90;;;3.05;;
69970;SDS011;57301;50.328;8.542;2024-01-06T02:21:24;6.63;;;3.10;;
69970;SDS011;57301;50.328;8.542;2024-01-06T02:23:54;7.13;;;2.50;;
69970;SDS011;57301;50.328;8.542;2024-01-06T02:26:20;6.00;;;3.10;;
69970;SDS011;57301;50.328;8.542;2024-01-06T02:28:47;6.68;;;3.03;;
69970;SDS011;57301;50.328;8.542;2024-01-06T02:31:15;6.80;;;3.40;;
69970;SDS011;57301;50.328;8.542;2024-01-06T02:33:42;4.87;;;2.40;;
69970;SDS011;57301;50.328;8.542;2024-01-06T02:36:08;7.40;;;2.60;;
69970;SDS011;57301;50.328;8.542;2024-01-06T02:38:35;8.75;;;3.00;;
69970;SDS011;57301;50.328;8.542;2024-01-06T02:41:01;3.67;;;2.50;;
69970;SDS011;57301;50.328;8.542;2024-01-06T02:43:28;6.25;;;2.80;;
69970;SDS011;57301;50.328;8.542;2024-01-06T02:45:54;5.27;;;2.70;;
69970;SDS011;57301;50.328;8.542;2024-01-06T02:48:21;6.50;;;2.90;;
69970;SDS011;57301;50.328;8.542;2024-01-06T02:50:48;5.45;;;2.60;;
69970;SDS011;57301;50.328;8.542;2024-01-06T02:53:14;6.72;;;3.15;;
69970;SDS011;57301;50.328;8.542;2024-01-06T02:55:41;4.07;;;2.50;;
69970;SDS011;57301;50.328;8.542;2024-01-06T02:58:07;4.43;;;2.67;;
69970;SDS011;57301;50.328;8.542;2024-01-06T03:00:34;6.18;;;3.10;;
69970;SDS011;57301;50.328;8.542;2024-01-06T03:03:00;8.48;;;2.60;;
69970;SDS011;57301;50.328;8.542;2024-01-06T03:05:27;4.78;;;2.80;;
69970;SDS011;57301;50.328;8.542;2024-01-06T03:07:53;5.85;;;2.95;;
69970;SDS011;57301;50.328;8.542;2024-01-06T03:10:20;8.60;;;3.10;;
69970;SDS011;57301;50.328;8.542;2024-01-06T03:12:46;3.83;;;2.58;;
69970;SDS011;57301;50.328;8.542;2024-01-06T03:15:13;7.57;;;2.58;;
69970;SDS011;57301;50.328;8.542;2024-01-06T03:17:40;4.72;;;2.60;;
69970;SDS011;57301;50.328;8.542;2024-01-06T03:20:07;5.43;;;2.80;;
69970;SDS011;57301;50.328;8.542;2024-01-06T03:22:35;4.97;;;2.50;;
69970;SDS011;57301;50.328;8.542;2024-01-06T03:25:02;5.45;;;2.90;;
69970;SDS011;57301;50.328;8.542;2024-01-06T03:27:29;4.93;;;2.70;;
69970;SDS011;57301;50.328;8.542;2024-01-06T03:29:55;7.20;;;2.72;;
69970;SDS011;57301;50.328;8.542;2024-01-06T03:32:22;5.43;;;2.95;;
69970;SDS011;57301;50.328;8.542;2024-01-06T03:34:48;7.60;;;2.77;;
69970;SDS011;57301;50.328;8.542;2024-01-06T03:37:15;7.97;;;2.50;;
69970;SDS011;57301;50.328;8.542;2024-01-06T03:39:42;6.30;;;2.25;;
69970;SDS011;57301;50.328;8.542;2024-01-06T03:42:08;6.40;;;2.50;;
69970;SDS011;57301;50.328;8.542;2024-01-06T03:44:35;7.28;;;2.83;;
69970;SDS011;57301;50.328;8.542;2024-01-06T03:47:01;6.90;;;3.10;;
69970;SDS011;57301;50.328;8.542;2024-01-06T03:49:28;5.28;;;2.38;;
69970;SDS011;57301;50.328;8.542;2024-01-06T03:51:55;4.35;;;2.35;;
69970;SDS011;57301;50.328;8.542;2024-01-06T03:54:21;7.30;;;2.47;;
69970;SDS011;57301;50.328;8.542;2024-01-06T03:56:48;5.65;;;2.40;;
69970;SDS011;57301;50.328;8.542;2024-01-06T03:59:15;6.33;;;2.70;;
69970;SDS011;57301;50.328;8.542;2024-01-06T04:01:42;4.68;;;2.63;;
69970;SDS011;57301;50.328;8.542;2024-01-06T04:04:08;5.57;;;2.63;;
69970;SDS011;57301;50.328;8.542;2024-01-06T04:06:35;6.60;;;2.40;;
69970;SDS011;57301;50.328;8.542;2024-01-06T04:09:01;4.97;;;2.35;;
69970;SDS011;57301;50.328;8.542;2024-01-06T04:11:28;5.87;;;2.47;;
69970;SDS011;57301;50.328;8.542;2024-01-06T04:13:55;5.88;;;2.55;;
69970;SDS011;57301;50.328;8.542;2024-01-06T04:16:21;5.18;;;2.00;;
69970;SDS011;57301;50.328;8.542;2024-01-06T04:18:48;6.30;;;2.17;;
69970;SDS011;57301;50.328;8.542;2024-01-06T04:21:15;5.50;;;2.25;;
69970;SDS011;57301;50.328;8.542;2024-01-06T04:23:41;5.23;;;2.37;;
69970;SDS011;57301;50.328;8.542;2024-01-06T04:26:08;4.53;;;2.38;;
69970;SDS011;57301;50.328;8.542;2024-01-06T04:28:35;5.70;;;2.35;;
69970;SDS011;57301;50.328;8.542;2024-01-06T04:31:01;4.18;;;2.00;;
69970;SDS011;57301;50.328;8.542;2024-01-06T04:33:28;4.60;;;2.30;;
69970;SDS011;57301;50.328;8.542;2024-01-06T04:35:55;4.80;;;2.60;;
69970;SDS011;57301;50.328;8.542;2024-01-06T04:38:21;6.38;;;2.10;;
69970;SDS011;57301;50.328;8.542;2024-01-06T04:40:48;4.72;;;2.20;;
69970;SDS011;57301;50.328;8.542;2024-01-06T04:43:14;7.07;;;2.45;;
69970;SDS011;57301;50.328;8.542;2024-01-06T04:45:41;5.53;;;2.30;;
69970;SDS011;57301;50.328;8.542;2024-01-06T04:48:07;5.20;;;2.20;;
69970;SDS011;57301;50.328;8.542;2024-01-06T04:50:34;3.95;;;2.08;;
69970;SDS011;57301;50.328;8.542;2024-01-06T04:53:01;5.22;;;2.00;;
69970;SDS011;57301;50.328;8.542;2024-01-06T04:55:27;5.15;;;2.20;;
69970;SDS011;57301;50.328;8.542;2024-01-06T04:57:54;4.13;;;2.30;;
69970;SDS011;57301;50.328;8.542;2024-01-06T05:00:21;5.63;;;2.37;;
69970;SDS011;57301;50.328;8.542;2024-01-06T05:02:48;4.55;;;2.22;;
69970;SDS011;57301;50.328;8.542;2024-01-06T05:05:14;6.32;;;2.30;;
69970;SDS011;57301;50.328;8.542;2024-01-06T05:07:41;4.22;;;2.25;;
69970;SDS011;57301;50.328;8.542;2024-01-06T05:10:08;4.68;;;2.55;;
69970;SDS011;57301;50.328;8.542;2024-01-06T05:12:34;6.23;;;2.93;;
69970;SDS011;57301;50.328;8.542;2024-01-06T05:15:01;4.80;;;2.28;;
69970;SDS011;57301;50.328;8.542;2024-01-06T05:17:28;6.88;;;2.42;;
69970;SDS011;57301;50.328;8.542;2024-01-06T05:19:54;7.20;;;2.55;;
69970;SDS011;57301;50.328;8.542;2024-01-06T05:22:21;7.30;;;2.30;;
69970;SDS011;57301;50.328;8.542;2024-01-06T05:24:48;5.87;;;2.27;;
69970;SDS011;57301;50.328;8.542;2024-01-06T05:27:15;4.97;;;2.40;;
69970;SDS011;57301;50.328;8.542;2024-01-06T05:29:41;5.15;;;2.10;;
69970;SDS011;57301;50.328;8.542;2024-01-06T05:32:08;4.15;;;2.30;;
69970;SDS011;57301;50.328;8.542;2024-01-06T05:34:35;6.03;;;2.17;;
69970;SDS011;57301;50.328;8.542;2024-01-06T05:37:02;7.47;;;2.07;;
69970;SDS011;57301;50.328;8.542;2024-01-06T05:39:28;4.05;;;2.17;;
69970;SDS011;57301;50.328;8.542;2024-01-06T05:41:55;4.47;;;2.33;;
69970;SDS011;57301;50.328;8.542;2024-01-06T05:44:21;5.18;;;2.20;;
69970;SDS011;57301;50.328;8.542;2024-01-06T05:46:48;4.15;;;2.00;;
69970;SDS011;57301;50.328;8.542;2024-01-06T05:49:15;4.33;;;2.17;;
69970;SDS011;57301;50.328;8.542;2024-01-06T05:51:44;5.90;;;2.28;;
69970;SDS011;57301;50.328;8.542;2024-01-06T05:54:11;5.63;;;2.25;;
69970;SDS011;57301;50.328;8.542;2024-01-06T05:56:39;4.13;;;2.25;;
69970;SDS011;57301;50.328;8.542;2024-01-06T05:59:05;4.32;;;2.00;;
69970;SDS011;57301;50.328;8.542;2024-01-06T06:01:32;4.20;;;2.07;;
69970;SDS011;57301;50.328;8.542;2024-01-06T06:03:59;6.30;;;2.20;;
69970;SDS011;57301;50.328;8.542;2024-01-06T06:06:25;7.50;;;2.63;;
69970;SDS011;57301;50.328;8.542;2024-01-06T06:08:52;4.18;;;2.20;;
69970;SDS011;57301;50.328;8.542;2024-01-06T06:11:18;6.15;;;2.15;;
69970;SDS011;57301;50.328;8.542;2024-01-06T06:13:45;4.40;;;2.20;;
69970;SDS011;57301;50.328;8.542;2024-01-06T06:16:12;4.95;;;2.38;;
69970;SDS011;57301;50.328;8.542;2024-01-06T06:18:39;5.00;;;2.10;;
69970;SDS011;57301;50.328;8.542;2024-01-06T06:21:06;6.25;;;2.70;;
69970;SDS011;57301;50.328;8.542;2024-01-06T06:23:34;4.63;;;2.40;;
69970;SDS011;57301;50.328;8.542;2024-01-06T06:26:04;5.27;;;2.47;;
69970;SDS011;57301;50.328;8.542;2024-01-06T06:28:32;4.65;;;2.35;;
69970;SDS011;57301;50.328;8.542;2024-01-06T06:30:58;5.93;;;2.72;;
69970;SDS011;57301;50.328;8.542;2024-01-06T06:33:25;3.53;;;2.20;;
69970;SDS011;57301;50.328;8.542;2024-01-06T06:35:52;5.03;;;2.35;;
69970;SDS011;57301;50.328;8.542;2024-01-06T06:38:18;4.43;;;1.93;;
69970;SDS011;57301;50.328;8.542;2024-01-06T06:40:45;7.55;;;1.90;;
69970;SDS011;57301;50.328;8.542;2024-01-06T06:43:11;4.57;;;1.88;;
69970;SDS011;57301;50.328;8.542;2024-01-06T06:45:38;6.57;;;1.85;;
69970;SDS011;57301;50.328;8.542;2024-01-06T06:48:05;3.53;;;1.83;;
69970;SDS011;57301;50.328;8.542;2024-01-06T06:50:33;4.83;;;2.00;;
69970;SDS011;57301;50.328;8.542;2024-01-06T06:52:59;7.07;;;2.40;;
69970;SDS011;57301;50.328;8.542;2024-01-06T06:55:27;9.25;;;2.28;;
69970;SDS011;57301;50.328;8.542;2024-01-06T06:57:53;4.60;;;2.35;;
69970;SDS011;57301;50.328;8.542;2024-01-06T07:00:20;4.80;;;2.40;;
69970;SDS011;57301;50.328;8.542;2024-01-06T07:02:47;6.47;;;2.20;;
69970;SDS011;57301;50.328;8.542;2024-01-06T07:05:14;4.95;;;2.60;;
69970;SDS011;57301;50.328;8.542;2024-01-06T07:07:40;5.43;;;3.35;;
69970;SDS011;57301;50.328;8.542;2024-01-06T07:10:09;7.72;;;3.28;;
69970;SDS011;57301;50.328;8.542;2024-01-06T07:12:36;10.05;;;5.82;;
69970;SDS011;57301;50.328;8.542;2024-01-06T07:15:02;6.53;;;3.60;;
69970;SDS011;57301;50.328;8.542;2024-01-06T07:17:32;4.95;;;2.20;;
69970;SDS011;57301;50.328;8.542;2024-01-06T07:19:59;5.63;;;2.10;;
69970;SDS011;57301;50.328;8.542;2024-01-06T07:22:25;6.60;;;3.45;;
69970;SDS011;57301;50.328;8.542;2024-01-06T07:24:52;11.93;;;4.10;;
69970;SDS011;57301;50.328;8.542;2024-01-06T07:27:19;11.07;;;4.93;;
69970;SDS011;57301;50.328;8.542;2024-01-06T07:29:46;7.85;;;3.75;;
69970;SDS011;57301;50.328;8.542;2024-01-06T07:32:12;4.75;;;2.78;;
69970;SDS011;57301;50.328;8.542;2024-01-06T07:34:39;5.15;;;2.80;;
69970;SDS011;57301;50.328;8.542;2024-01-06T07:37:06;5.50;;;2.75;;
69970;SDS011;57301;50.328;8.542;2024-01-06T07:39:32;6.00;;;2.97;;
69970;SDS011;57301;50.328;8.542;2024-01-06T07:41:59;5.22;;;3.03;;
69970;SDS011;57301;50.328;8.542;2024-01-06T07:44:26;5.93;;;2.60;;
69970;SDS011;57301;50.328;8.542;2024-01-06T07:46:52;4.78;;;2.70;;
69970;SDS011;57301;50.328;8.542;2024-01-06T07:49:19;5.60;;;2.63;;
69970;SDS011;57301;50.328;8.542;2024-01-06T07:51:46;4.37;;;2.20;;
69970;SDS011;57301;50.328;8.542;2024-01-06T07:54:12;4.22;;;2.40;;
69970;SDS011;57301;50.328;8.542;2024-01-06T07:56:39;5.13;;;2.30;;
69970;SDS011;57301;50.328;8.542;2024-01-06T07:59:05;33.28;;;10.25;;
69970;SDS011;57301;50.328;8.542;2024-01-06T08:01:32;22.98;;;6.45;;
69970;SDS011;57301;50.328;8.542;2024-01-06T08:03:59;15.30;;;5.70;;
69970;SDS011;57301;50.328;8.542;2024-01-06T08:06:26;28.52;;;14.75;;
69970;SDS011;57301;50.328;8.542;2024-01-06T08:08:53;24.63;;;9.82;;
69970;SDS011;57301;50.328;8.542;2024-01-06T08:11:20;19.98;;;7.65;;
69970;SDS011;57301;50.328;8.542;2024-01-06T08:13:47;8.00;;;3.67;;
69970;SDS011;57301;50.328;8.542;2024-01-06T08:16:13;5.97;;;3.20;;
69970;SDS011;57301;50.328;8.542;2024-01-06T08:18:40;4.03;;;2.40;;
69970;SDS011;57301;50.328;8.542;2024-01-06T08:21:07;7.18;;;2.38;;
69970;SDS011;57301;50.328;8.542;2024-01-06T08:23:33;5.95;;;2.10;;
69970;SDS011;57301;50.328;8.542;2024-01-06T08:26:00;4.40;;;2.30;;
69970;SDS011;57301;50.328;8.542;2024-01-06T08:28:27;4.83;;;2.43;;
69970;SDS011;57301;50.328;8.542;2024-01-06T08:30:53;5.20;;;2.88;;
69970;SDS011;57301;50.328;8.542;2024-01-06T08:33:20;5.38;;;2.78;;
69970;SDS011;57301;50.328;8.542;2024-01-06T08:35:47;5.20;;;3.22;;
69970;SDS011;57301;50.328;8.542;2024-01-06T08:38:14;5.38;;;2.88;;
69970;SDS011;57301;50.328;8.542;2024-01-06T08:40:41;5.27;;;3.30;;
69970;SDS011;57301;50.328;8.542;2024-01-06T08:43:08;6.22;;;2.80;;
69970;SDS011;57301;50.328;8.542;2024-01-06T08:45:35;5.32;;;2.70;;
69970;SDS011;57301;50.328;8.542;2024-01-06T08:48:02;5.03;;;2.65;;
69970;SDS011;57301;50.328;8.542;2024-01-06T08:50:29;6.25;;;3.17;;
69970;SDS011;57301;50.328;8.542;2024-01-06T08:52:55;4.73;;;3.13;;
69970;SDS011;57301;50.328;8.542;2024-01-06T08:55:22;6.55;;;3.40;;
69970;SDS011;57301;50.328;8.542;2024-01-06T08:57:48;7.10;;;3.38;;
69970;SDS011;57301;50.328;8.542;2024-01-06T09:00:15;7.82;;;3.70;;
69970;SDS011;57301;50.328;8.542;2024-01-06T09:02:42;7.03;;;3.40;;
69970;SDS011;57301;50.328;8.542;2024-01-06T09:05:08;10.37;;;5.90;;
69970;SDS011;57301;50.328;8.542;2024-01-06T09:07:35;7.90;;;5.40;;
69970;SDS011;57301;50.328;8.542;2024-01-06T09:10:01;22.17;;;11.68;;
69970;SDS011;57301;50.328;8.542;2024-01-06T09:12:28;4.90;;;3.30;;
69970;SDS011;57301;50.328;8.542;2024-01-06T09:14:56;8.75;;;4.88;;
69970;SDS011;57301;50.328;8.542;2024-01-06T09:17:22;7.97;;;5.10;;
69970;SDS011;57301;50.328;8.542;2024-01-06T09:19:49;10.57;;;6.20;;
69970;SDS011;57301;50.328;8.542;2024-01-06T09:22:15;16.08;;;8.75;;
69970;SDS011;57301;50.328;8.542;2024-01-06T09:24:42;6.93;;;3.92;;
69970;SDS011;57301;50.328;8.542;2024-01-06T09:27:09;6.95;;;3.85;;
69970;SDS011;57301;50.328;8.542;2024-01-06T09:29:35;5.87;;;3.73;;
69970;SDS011;57301;50.328;8.542;2024-01-06T09:32:02;5.80;;;3.10;;
69970;SDS011;57301;50.328;8.542;2024-01-06T09:34:28;3.83;;;2.40;;
69970;SDS011;57301;50.328;8.542;2024-01-06T09:36:55;3.70;;;2.55;;
69970;SDS011;57301;50.328;8.542;2024-01-06T09:39:22;12.65;;;5.88;;
69970;SDS011;57301;50.328;8.542;2024-01-06T09:41:48;7.43;;;3.63;;
69970;SDS011;57301;50.328;8.542;2024-01-06T09:44:15;4.97;;;3.03;;
69970;SDS011;57301;50.328;8.542;2024-01-06T09:46:42;4.85;;;2.72;;
69970;SDS011;57301;50.328;8.542;2024-01-06T09:49:10;5.43;;;2.20;;
69970;SDS011;57301;50.328;8.542;2024-01-06T09:51:37;4.32;;;2.70;;
69970;SDS011;57301;50.328;8.542;2024-01-06T09:54:09;5.13;;;2.67;;
69970;SDS011;57301;50.328;8.542;2024-01-06T09:56:38;15.43;;;8.77;;
69970;SDS011;57301;50.328;8.542;2024-01-06T09:59:05;35.88;;;20.02;;
69970;SDS011;57301;50.328;8.542;2024-01-06T10:01:32;18.98;;;10.57;;
69970;SDS011;57301;50.328;8.542;2024-01-06T10:03:58;5.20;;;3.05;;
69970;SDS011;57301;50.328;8.542;2024-01-06T10:06:25;5.30;;;2.60;;
69970;SDS011;57301;50.328;8.542;2024-01-06T10:08:52;4.75;;;2.80;;
69970;SDS011;57301;50.328;8.542;2024-01-06T10:11:19;6.18;;;2.53;;
69970;SDS011;57301;50.328;8.542;2024-01-06T10:13:48;4.78;;;2.50;;
69970;SDS011;57301;50.328;8.542;2024-01-06T10:16:17;5.35;;;2.60;;
69970;SDS011;57301;50.328;8.542;2024-01-06T10:18:44;4.70;;;2.73;;
69970;SDS011;57301;50.328;8.542;2024-01-06T10:21:14;6.85;;;2.95;;
69970;SDS011;57301;50.328;8.542;2024-01-06T10:23:43;4.75;;;2.58;;
69970;SDS011;57301;50.328;8.542;2024-01-06T10:26:12;4.65;;;3.08;;
69970;SDS011;57301;50.328;8.542;2024-01-06T10:28:40;5.80;;;2.92;;
69970;SDS011;57301;50.328;8.542;2024-01-06T10:31:07;4.23;;;2.90;;
69970;SDS011;57301;50.328;8.542;2024-01-06T10:33:34;4.72;;;2.42;;
69970;SDS011;57301;50.328;8.542;2024-01-06T10:36:02;6.50;;;2.70;;
69970;SDS011;57301;50.328;8.542;2024-01-06T10:38:30;4.82;;;2.20;;
69970;SDS011;57301;50.328;8.542;2024-01-06T10:41:00;8.10;;;4.20;;
69970;SDS011;57301;50.328;8.542;2024-01-06T10:43:33;5.17;;;2.20;;
69970;SDS011;57301;50.328;8.542;2024-01-06T10:46:07;11.73;;;6.43;;
69970;SDS011;57301;50.328;8.542;2024-01-06T10:48:37;6.82;;;4.00;;
69970;SDS011;57301;50.328;8.542;2024-01-06T10:51:09;7.22;;;4.47;;
69970;SDS011;57301;50.328;8.542;2024-01-06T10:53:36;7.43;;;4.70;;
69970;SDS011;57301;50.328;8.542;2024-01-06T10:56:07;11.23;;;6.60;;
69970;SDS011;57301;50.328;8.542;2024-01-06T10:58:34;8.38;;;4.38;;
69970;SDS011;57301;50.328;8.542;2024-01-06T11:01:09;6.10;;;3.78;;
69970;SDS011;57301;50.328;8.542;2024-01-06T11:03:37;10.50;;;5.95;;
69970;SDS011;57301;50.328;8.542;2024-01-06T11:06:08;8.05;;;4.30;;
69970;SDS011;57301;50.328;8.542;2024-01-06T11:08:44;7.97;;;4.70;;
69970;SDS011;57301;50.328;8.542;2024-01-06T11:11:32;3.95;;;2.25;;
69970;SDS011;57301;50.328;8.542;2024-01-06T11:14:20;3.92;;;2.28;;
69970;SDS011;57301;50.328;8.542;2024-01-06T11:16:48;4.10;;;2.17;;
69970;SDS011;57301;50.328;8.542;2024-01-06T11:19:58;3.40;;;2.05;;
69970;SDS011;57301;50.328;8.542;2024-01-06T11:24:51;4.93;;;2.17;;
69970;SDS011;57301;50.328;8.542;2024-01-06T11:27:20;3.30;;;2.20;;
69970;SDS011;57301;50.328;8.542;2024-01-06T11:29:52;4.32;;;2.20;;
69970;SDS011;57301;50.328;8.542;2024-01-06T11:32:24;5.22;;;2.75;;
69970;SDS011;57301;50.328;8.542;2024-01-06T11:34:54;3.80;;;2.30;;
69970;SDS011;57301;50.328;8.542;2024-01-06T11:37:24;5.75;;;3.45;;
69970;SDS011;57301;50.328;8.542;2024-01-06T11:39:51;8.20;;;4.80;;
69970;SDS011;57301;50.328;8.542;2024-01-06T11:42:19;14.07;;;9.25;;
69970;SDS011;57301;50.328;8.542;2024-01-06T11:44:49;10.32;;;6.93;;
69970;SDS011;57301;50.328;8.542;2024-01-06T11:47:17;13.77;;;7.33;;
69970;SDS011;57301;50.328;8.542;2024-01-06T11:49:44;9.93;;;5.78;;
69970;SDS011;57301;50.328;8.542;2024-01-06T11:52:12;7.32;;;4.60;;
69970;SDS011;57301;50.328;8.542;2024-01-06T11:54:40;6.13;;;3.45;;
69970;SDS011;57301;50.328;8.542;2024-01-06T11:57:08;23.77;;;10.20;;
69970;SDS011;57301;50.328;8.542;2024-01-06T11:59:35;12.83;;;7.93;;
69970;SDS011;57301;50.328;8.542;2024-01-06T12:02:02;8.68;;;4.80;;
69970;SDS011;57301;50.328;8.542;2024-01-06T12:04:29;8.57;;;5.18;;
69970;SDS011;57301;50.328;8.542;2024-01-06T12:07:04;6.70;;;3.70;;
69970;SDS011;57301;50.328;8.542;2024-01-06T12:09:32;26.67;;;15.15;;
69970;SDS011;57301;50.328;8.542;2024-01-06T12:12:03;15.97;;;8.43;;
69970;SDS011;57301;50.328;8.542;2024-01-06T12:14:31;8.35;;;5.10;;
69970;SDS011;57301;50.328;8.542;2024-01-06T12:16:58;6.72;;;4.65;;
69970;SDS011;57301;50.328;8.542;2024-01-06T12:19:34;11.73;;;6.40;;
69970;SDS011;57301;50.328;8.542;2024-01-06T12:22:05;5.13;;;3.20;;
69970;SDS011;57301;50.328;8.542;2024-01-06T12:24:33;7.47;;;4.33;;
69970;SDS011;57301;50.328;8.542;2024-01-06T12:26:59;8.68;;;3.90;;
69970;SDS011;57301;50.328;8.542;2024-01-06T12:29:26;5.63;;;3.60;;
69970;SDS011;57301;50.328;8.542;2024-01-06T12:31:59;6.25;;;3.38;;
69970;SDS011;57301;50.328;8.542;2024-01-06T12:34:26;4.90;;;3.10;;
69970;SDS011;57301;50.328;8.542;2024-01-06T12:36:53;7.23;;;3.50;;
69970;SDS011;57301;50.328;8.542;2024-01-06T12:39:21;5.55;;;3.38;;
69970;SDS011;57301;50.328;8.542;2024-01-06T12:41:50;6.20;;;3.78;;
69970;SDS011;57301;50.328;8.542;2024-01-06T12:44:17;6.05;;;3.78;;
69970;SDS011;57301;50.328;8.542;2024-01-06T12:46:44;7.15;;;3.97;;
69970;SDS011;57301;50.328;8.542;2024-01-06T12:49:11;10.83;;;5.90;;
69970;SDS011;57301;50.328;8.542;2024-01-06T12:51:38;7.00;;;4.20;;
69970;SDS011;57301;50.328;8.542;2024-01-06T12:54:04;6.72;;;4.30;;
69970;SDS011;57301;50.328;8.542;2024-01-06T12:56:31;8.88;;;4.70;;
69970;SDS011;57301;50.328;8.542;2024-01-06T12:59:00;8.77;;;5.40;;
69970;SDS011;57301;50.328;8.542;2024-01-06T13:01:26;8.30;;;5.07;;
69970;SDS011;57301;50.328;8.542;2024-01-06T13:03:53;8.27;;;5.07;;
69970;SDS011;57301;50.328;8.542;2024-01-06T13:06:20;9.88;;;4.95;;
69970;SDS011;57301;50.328;8.542;2024-01-06T13:08:47;10.10;;;5.30;;
69970;SDS011;57301;50.328;8.542;2024-01-06T13:11:14;9.93;;;5.60;;
69970;SDS011;57301;50.328;8.542;2024-01-06T13:13:41;9.70;;;5.30;;
69970;SDS011;57301;50.328;8.542;2024-01-06T13:16:08;9.63;;;5.65;;
69970;SDS011;57301;50.328;8.542;2024-01-06T13:18:36;10.40;;;5.65;;
69970;SDS011;57301;50.328;8.542;2024-01-06T13:21:02;11.02;;;5.32;;
69970;SDS011;57301;50.328;8.542;2024-01-06T13:23:29;10.32;;;5.10;;
69970;SDS011;57301;50.328;8.542;2024-01-06T13:25:56;9.70;;;5.70;;
69970;SDS011;57301;50.328;8.542;2024-01-06T13:28:24;13.38;;;5.75;;
69970;SDS011;57301;50.328;8.542;2024-01-06T13:30:50;10.15;;;5.60;;
69970;SDS011;57301;50.328;8.542;2024-01-06T13:33:19;11.30;;;5.50;;
69970;SDS011;57301;50.328;8.542;2024-01-06T13:35:46;11.18;;;5.40;;
69970;SDS011;57301;50.328;8.542;2024-01-06T13:38:13;10.40;;;5.40;;
69970;SDS011;57301;50.328;8.542;2024-01-06T13:40:39;10.45;;;5.68;;
69970;SDS011;57301;50.328;8.542;2024-01-06T13:43:06;12.05;;;5.95;;
69970;SDS011;57301;50.328;8.542;2024-01-06T13:45:35;10.90;;;5.70;;
69970;SDS011;57301;50.328;8.542;2024-01-06T13:48:02;9.32;;;4.65;;
69970;SDS011;57301;50.328;8.542;2024-01-06T13:50:35;8.17;;;4.67;;
69970;SDS011;57301;50.328;8.542;2024-01-06T13:53:01;9.05;;;5.15;;
69970;SDS011;57301;50.328;8.542;2024-01-06T13:55:29;9.70;;;5.30;;
69970;SDS011;57301;50.328;8.542;2024-01-06T13:57:55;9.40;;;5.10;;
69970;SDS011;57301;50.328;8.542;2024-01-06T14:00:22;10.27;;;4.80;;
69970;SDS011;57301;50.328;8.542;2024-01-06T14:02:49;10.23;;;5.07;;
69970;SDS011;57301;50.328;8.542;2024-01-06T14:05:15;9.55;;;5.00;;
69970;SDS011;57301;50.328;8.542;2024-01-06T14:07:42;10.48;;;5.72;;
69970;SDS011;57301;50.328;8.542;2024-01-06T14:10:12;10.48;;;5.63;;
69970;SDS011;57301;50.328;8.542;2024-01-06T14:12:41;8.93;;;4.85;;
69970;SDS011;57301;50.328;8.542;2024-01-06T14:15:08;7.30;;;4.60;;
69970;SDS011;57301;50.328;8.542;2024-01-06T14:17:35;8.27;;;4.65;;
69970;SDS011;57301;50.328;8.542;2024-01-06T14:20:02;9.13;;;4.40;;
69970;SDS011;57301;50.328;8.542;2024-01-06T14:22:30;7.43;;;4.10;;
69970;SDS011;57301;50.328;8.542;2024-01-06T14:24:56;7.72;;;4.18;;
69970;SDS011;57301;50.328;8.542;2024-01-06T14:27:23;8.70;;;4.57;;
69970;SDS011;57301;50.328;8.542;2024-01-06T14:29:49;8.88;;;4.45;;
69970;SDS011;57301;50.328;8.542;2024-01-06T14:32:16;9.60;;;5.22;;
69970;SDS011;57301;50.328;8.542;2024-01-06T14:34:43;7.20;;;3.90;;
69970;SDS011;57301;50.328;8.542;2024-01-06T14:37:09;7.47;;;4.05;;
69970;SDS011;57301;50.328;8.542;2024-01-06T14:39:36;6.47;;;3.80;;
69970;SDS011;57301;50.328;8.542;2024-01-06T14:42:03;5.80;;;3.58;;
69970;SDS011;57301;50.328;8.542;2024-01-06T14:44:30;7.18;;;3.58;;
69970;SDS011;57301;50.328;8.542;2024-01-06T14:46:56;5.90;;;3.63;;
69970;SDS011;57301;50.328;8.542;2024-01-06T14:49:23;6.18;;;3.67;;